19:49
Airports
History
Links
Donate
Help keep this website running!
PayPal
Bitcoin
Information on this page is community maintained and may be outdated or inaccurate and is intended for reference only or PC simulator navigating!
Always use approved charts for navigating.
UIIR
Irkutsk Northwest
Irkutsk Northwest (UIIR)
Irkutsk, Irkutskaya oblast, Russian Federation (664020)
(U)
Lat/Lng:52° 22' 3.76" N / 104° 11' 0.02" E
52.367712 / 104.18334
Elevation:1417'ft 432mMSL
ID / ICAO:UIIR
Runways:1
Longest:(14-32) 2,494.5m 8,184ft Concrete
Distance To
Airport ID:
Nearby VORs <50NM
Nearby NDBs
Nearby WeatherUpdated 03-24-17 19:30 GMT
Nearby weather at UIII, Irkutsk located 11.4 nautical miles from UIIR
Altimeter: 30.36
Visibility: 6.2 statute miles
Wind: 1.9 knots (100°)
Temp: -3°c 27°f
Humidity: 73.8%

METAR: UIII 241930Z 10001MPS CAVOK M03/M07 Q1028 R12/CLRD60 NOSIG RMK QFE728/0971

(Powered by phpweather)
Runway 14 / 32
Dimensions:2494.5 x 60.1m 8184' x 197'ft
Surface:Concrete
Edge Lights:Medium intensity
Runway 14 [A]Runway 32 [B]
Heading:318°TH 138°TH
Lat:
Lng:
52° 21' 33.65"N
104° 11' 44.38"E
52° 22' 33.87"N
104° 10' 15.67"E
ALS:MALSFMALSF
TDZ:Yes, lighted
Google Map
Nearby Airports
(C) Irkutsk 11.4 NM
UIII (WX) SE 127°
4 Oyek 17.0 NM
XIIO NE 42°
(C) Ust-Ordynskiy 39.2 NM
UIIO NE 35°
(C) Belaya 45.6 NM
UIIB NW 326°
4 Belsk 57.4 NM
UI10 NW 308°
4 Nizhnyaya Iret 82.3 NM
UI96 WNW 301°
4 Kyren 98.4 NM
UIIN WSW 241°
VFR Chart
Flight Planning at SkyVector.com